Graz, Austria

2:18 PM CET on January 28, 2015 (GMT +0100)
ISTEIERM17 | Change Station
CLOSE
Current Station
Personal Weather Station
Location: Graz-Pirka, STEIERMARK
Elevation: 1152 ft
Nearby Weather Stations

Elev 1152 ft 47.00 °N, 15.39 °E | Updated 3 minutes ago

Partly Cloudy
Partly Cloudy
42.8 °F
Feels Like 43 °F
N
2.7
Wind Variable Wind from East
Gusts 3.4 mph

Today
High -- | Low -- °F
--% Chance of Precip.
Yesterday
High -- | Low -- °F
Precip. -- in
7:28 AM 4:54 PM
Waxing Gibbous, 64% visible
Pressure 29.98 in
Visibility 6.2 miles
Clouds Few 6000 ft
Windchill 43 °F
Dew Point 29 °F
Humidity 58%
Rainfall 0.00 in
Snow Depth Not available.
UV 1.0 out of 12
Pollen Not available.
Air Quality Not available.
Flu Activity Not available.
METAR LOWG 281250Z 17007KT 9999 FEW060 05/M04 Q1015 R17/1///95 NOSIG

More Conditions Fewer Conditions

Pressure 29.98 in
Visibility 6.2 miles
Clouds Few 6000 ft
Windchill 43 °F
Dew Point 29 °F
Humidity 58%
Rainfall 0.00 in
Snow Depth Not available.
UV 1.0 out of 12
Pollen Not available.
Air Quality Not available.
Flu Activity Not available.
METAR LOWG 281250Z 17007KT 9999 FEW060 05/M04 Q1015 R17/1///95 NOSIG

More Conditions Fewer Conditions

10-Day Weather Forecast

Almanac

Astronomy

Jan. 28, 2015 Rise Set
Actual Time
Civil Twilight
Nautical Twilight
Astronomical Twilight
Moon
Length of Visible Light
Length of Day
Tomorrow will be .
, % of the Moon is Illuminated

Today's Extremes

Country Highs Country Lows

Community

WunderPhotos

Upload Photos

1,791,136 photos uploaded!

WunderBlogs® & News

Nearby

Air Quality

  Air Quality AQ Index Pollutant
Not available.

Snow Depth

Station Depth Elevation

Earthquake Activity

City Distance Mag. Time & Date
Minimum magnitude displayed is 2.5.

Coastal Water Temperatures

Place Temperature

Nearby Weather Stations